Time;durP1;ratioP1;P1;durP2;ratioP2;P2;SDS_P1;SDS_P2;PMS_P1;PMS_P2;Temp;Humidity;BMP_temperature;BMP_pressure;BME280_temperature;BME280_humidity;BME280_pressure;Samples;Min_cycle;Max_cycle;Signal;HPM_P1;HPM_P2
2023/12/07 00:00:35;;;;;;;6.22;4.82;;;;;;;;;;8287120;28;20256;-57
2023/12/07 00:04:36;;;;;;;8.60;5.03;;;;;;;;;;8284262;28;20126;-57
2023/12/07 00:08:36;;;;;;;6.70;5.20;;;;;;;;;;8283643;28;20025;-58
2023/12/07 00:12:36;;;;;;;8.57;5.53;;;;;;;;;;8282330;28;20049;-57
2023/12/07 00:16:37;;;;;;;8.60;5.80;;;;;;;;;;8279246;28;20287;-57
2023/12/07 00:20:37;;;;;;;10.30;5.80;;;;;;;;;;8283642;28;20300;-57
2023/12/07 00:24:37;;;;;;;11.20;5.63;;;;;;;;;;8279116;28;20043;-58
2023/12/07 00:28:37;;;;;;;11.13;5.78;;;;;;;;;;8264113;28;20290;-57
2023/12/07 00:32:37;;;;;;;11.18;5.25;;;;;;;;;;8274039;28;20033;-59
2023/12/07 00:36:40;;;;;;;10.70;5.78;;;;;;;;;;8279046;28;20049;-57
2023/12/07 00:40:41;;;;;;;10.93;5.60;;;;;;;;;;8280189;28;20070;-56
2023/12/07 00:44:41;;;;;;;12.50;5.47;;;;;;;;;;8278402;28;20051;-57
2023/12/07 00:48:42;;;;;;;8.43;5.53;;;;;;;;;;8275359;28;20042;-57
2023/12/07 00:52:42;;;;;;;7.80;5.30;;;;;;;;;;8278996;28;20593;-57
2023/12/07 00:56:42;;;;;;;11.38;6.03;;;;;;;;;;8279675;28;20025;-58
2023/12/07 01:00:42;;;;;;;12.18;5.88;;;;;;;;;;8277730;28;20083;-57
2023/12/07 01:04:43;;;;;;;10.43;5.28;;;;;;;;;;8274442;28;20164;-57
2023/12/07 01:08:44;;;;;;;10.85;5.75;;;;;;;;;;8283870;28;20029;-58
2023/12/07 01:12:44;;;;;;;16.02;5.97;;;;;;;;;;8280031;28;20039;-56
2023/12/07 01:16:44;;;;;;;7.22;5.18;;;;;;;;;;8274689;28;20158;-56
2023/12/07 01:20:45;;;;;;;7.88;5.72;;;;;;;;;;8277263;28;20021;-57
2023/12/07 01:24:45;;;;;;;9.18;6.05;;;;;;;;;;8279022;28;20075;-57
2023/12/07 01:28:45;;;;;;;10.88;5.93;;;;;;;;;;8281589;28;20032;-56
2023/12/07 01:32:45;;;;;;;9.93;6.22;;;;;;;;;;8278577;28;20698;-56
2023/12/07 01:36:45;;;;;;;8.20;5.93;;;;;;;;;;8280991;28;20068;-57
2023/12/07 01:40:46;;;;;;;11.68;6.57;;;;;;;;;;8278392;28;20500;-56
2023/12/07 01:44:46;;;;;;;10.32;5.97;;;;;;;;;;8279756;28;20017;-56
2023/12/07 01:48:49;;;;;;;11.65;5.90;;;;;;;;;;8273450;28;20072;-56
2023/12/07 01:52:51;;;;;;;11.70;5.90;;;;;;;;;;8274492;28;20796;-56
2023/12/07 01:56:51;;;;;;;8.30;5.25;;;;;;;;;;8277293;28;20116;-56
2023/12/07 02:00:52;;;;;;;14.18;6.50;;;;;;;;;;8275271;28;20144;-56
2023/12/07 02:04:52;;;;;;;12.80;5.80;;;;;;;;;;8274755;28;20151;-55
2023/12/07 02:08:53;;;;;;;10.33;6.50;;;;;;;;;;8279348;28;20029;-56
2023/12/07 02:12:54;;;;;;;10.93;5.53;;;;;;;;;;8280686;28;20280;-58
2023/12/07 02:16:57;;;;;;;10.60;6.20;;;;;;;;;;8277570;28;20183;-56
2023/12/07 02:20:57;;;;;;;9.95;6.45;;;;;;;;;;8278656;28;20025;-56
2023/12/07 02:25:08;;;;;;;10.60;6.07;;;;;;;;;;8278272;28;22112;-57
2023/12/07 02:29:08;;;;;;;7.20;5.95;;;;;;;;;;8280216;28;20631;-57
2023/12/07 02:33:08;;;;;;;12.82;6.10;;;;;;;;;;8281587;28;20060;-57
2023/12/07 02:37:11;;;;;;;7.75;5.50;;;;;;;;;;8278383;28;20029;-56
2023/12/07 02:41:11;;;;;;;13.13;5.72;;;;;;;;;;8283964;28;20372;-56
2023/12/07 02:45:12;;;;;;;7.30;4.93;;;;;;;;;;8282691;28;20028;-56
2023/12/07 02:49:12;;;;;;;5.60;4.30;;;;;;;;;;8287903;28;20025;-57
2023/12/07 02:53:13;;;;;;;6.63;4.28;;;;;;;;;;8285020;28;20048;-56
2023/12/07 02:57:14;;;;;;;7.70;4.70;;;;;;;;;;8284968;28;20025;-56
2023/12/07 03:01:14;;;;;;;7.00;5.05;;;;;;;;;;8284291;28;20279;-56
2023/12/07 03:05:14;;;;;;;8.27;5.47;;;;;;;;;;8290720;28;20021;-56
2023/12/07 03:09:15;;;;;;;9.45;5.10;;;;;;;;;;8288120;28;20043;-55
2023/12/07 03:13:15;;;;;;;7.15;4.82;;;;;;;;;;8280583;28;20065;-56
2023/12/07 03:17:15;;;;;;;6.07;5.00;;;;;;;;;;8283146;28;20029;-56
2023/12/07 03:21:15;;;;;;;8.63;5.47;;;;;;;;;;8283931;28;20294;-56
2023/12/07 03:25:16;;;;;;;7.72;5.43;;;;;;;;;;8287766;28;20028;-56
2023/12/07 03:29:16;;;;;;;9.27;6.07;;;;;;;;;;8284591;28;20035;-56
2023/12/07 03:33:16;;;;;;;8.35;5.82;;;;;;;;;;8284423;28;20034;-58
2023/12/07 03:37:16;;;;;;;11.07;7.07;;;;;;;;;;8281037;28;20404;-57
2023/12/07 03:41:16;;;;;;;8.75;5.93;;;;;;;;;;8283383;28;20021;-57
2023/12/07 03:45:17;;;;;;;9.30;6.88;;;;;;;;;;8283048;28;20032;-56
2023/12/07 03:49:17;;;;;;;10.95;6.90;;;;;;;;;;8280511;28;20076;-55
2023/12/07 03:53:17;;;;;;;10.30;6.57;;;;;;;;;;8283668;28;20095;-56
2023/12/07 03:57:17;;;;;;;9.13;6.43;;;;;;;;;;8283430;28;20311;-57
2023/12/07 04:01:21;;;;;;;9.65;5.90;;;;;;;;;;8277918;28;20280;-56
2023/12/07 04:05:21;;;;;;;8.15;5.90;;;;;;;;;;8284703;28;20032;-56
2023/12/07 04:09:21;;;;;;;9.52;5.32;;;;;;;;;;8280433;28;20545;-57
2023/12/07 04:13:22;;;;;;;6.55;4.75;;;;;;;;;;8270317;28;20560;-57
2023/12/07 04:17:22;;;;;;;7.32;5.15;;;;;;;;;;8284463;28;20041;-55
2023/12/07 04:21:22;;;;;;;7.37;5.00;;;;;;;;;;8279371;28;20143;-56
2023/12/07 04:25:22;;;;;;;8.73;4.80;;;;;;;;;;8283351;28;20275;-56
2023/12/07 04:29:22;;;;;;;6.20;4.13;;;;;;;;;;8285934;28;20116;-57
2023/12/07 04:33:23;;;;;;;6.45;5.00;;;;;;;;;;8282213;28;20069;-57
2023/12/07 04:37:23;;;;;;;7.40;5.20;;;;;;;;;;8284859;28;20218;-55
2023/12/07 04:41:23;;;;;;;6.47;4.70;;;;;;;;;;8285644;28;20538;-55
2023/12/07 04:45:23;;;;;;;9.95;5.88;;;;;;;;;;8284978;28;20029;-55
2023/12/07 04:49:24;;;;;;;8.02;5.18;;;;;;;;;;8278564;28;20218;-56
2023/12/07 04:53:24;;;;;;;10.98;4.57;;;;;;;;;;8282069;28;20108;-56
2023/12/07 04:57:24;;;;;;;6.32;4.90;;;;;;;;;;8283891;28;20029;-55
2023/12/07 05:01:24;;;;;;;8.20;5.30;;;;;;;;;;8284021;28;20047;-57
2023/12/07 05:05:25;;;;;;;9.55;6.05;;;;;;;;;;8265742;28;20029;-57
2023/12/07 05:09:25;;;;;;;8.50;5.70;;;;;;;;;;8276654;28;20119;-56
2023/12/07 05:13:26;;;;;;;6.07;5.00;;;;;;;;;;8279995;28;20056;-56
2023/12/07 05:17:26;;;;;;;14.00;9.88;;;;;;;;;;8280917;28;20040;-56
2023/12/07 05:21:26;;;;;;;9.57;7.25;;;;;;;;;;8280100;28;20487;-57
2023/12/07 05:25:26;;;;;;;9.45;5.88;;;;;;;;;;8276500;28;20060;-57
2023/12/07 05:29:26;;;;;;;6.85;5.05;;;;;;;;;;8280007;28;20112;-56
2023/12/07 05:33:27;;;;;;;7.32;5.22;;;;;;;;;;8277403;28;20148;-57
2023/12/07 05:37:27;;;;;;;10.13;5.95;;;;;;;;;;8275584;28;20026;-57
2023/12/07 05:41:28;;;;;;;8.10;5.90;;;;;;;;;;8282477;28;20015;-57
2023/12/07 05:45:28;;;;;;;8.57;5.43;;;;;;;;;;8278737;28;20037;-57
2023/12/07 05:49:30;;;;;;;9.68;5.45;;;;;;;;;;8285849;28;20128;-56
2023/12/07 05:53:32;;;;;;;6.15;5.07;;;;;;;;;;8282223;28;20043;-55
2023/12/07 05:57:32;;;;;;;7.20;4.85;;;;;;;;;;8282123;28;20014;-59
2023/12/07 06:01:33;;;;;;;10.23;5.70;;;;;;;;;;8282413;28;20071;-56
2023/12/07 06:05:33;;;;;;;16.23;5.95;;;;;;;;;;8287822;28;20076;-56
2023/12/07 06:09:34;;;;;;;32.20;6.70;;;;;;;;;;8283561;28;20036;-55
2023/12/07 06:13:34;;;;;;;65.75;8.25;;;;;;;;;;8285071;28;20401;-56
2023/12/07 06:17:35;;;;;;;55.15;8.35;;;;;;;;;;8285178;28;20532;-56
2023/12/07 06:21:35;;;;;;;30.45;7.22;;;;;;;;;;8285390;28;20033;-57
2023/12/07 06:25:35;;;;;;;114.63;9.20;;;;;;;;;;8289575;28;20022;-57
2023/12/07 06:29:35;;;;;;;187.50;12.60;;;;;;;;;;8281651;28;20566;-57
2023/12/07 06:33:35;;;;;;;339.67;16.80;;;;;;;;;;8295022;28;20032;-57
2023/12/07 06:37:36;;;;;;;64.82;8.77;;;;;;;;;;8286497;28;20279;-56
2023/12/07 06:41:36;;;;;;;110.05;9.55;;;;;;;;;;8280061;28;20023;-57
2023/12/07 06:45:37;;;;;;;63.70;8.77;;;;;;;;;;8272062;28;20033;-57
2023/12/07 06:49:37;;;;;;;28.05;7.78;;;;;;;;;;8274588;28;20037;-56
2023/12/07 06:53:37;;;;;;;30.77;8.00;;;;;;;;;;8279246;28;20056;-57
2023/12/07 06:57:37;;;;;;;123.95;14.48;;;;;;;;;;8277616;28;20091;-56
2023/12/07 07:01:38;;;;;;;45.95;9.05;;;;;;;;;;8275493;28;20037;-57
2023/12/07 07:05:39;;;;;;;156.98;13.20;;;;;;;;;;8281307;28;20457;-57
2023/12/07 07:09:39;;;;;;;200.48;15.02;;;;;;;;;;8277840;28;20017;-57
2023/12/07 07:13:40;;;;;;;171.18;13.30;;;;;;;;;;8282757;28;20423;-58
2023/12/07 07:17:40;;;;;;;100.95;9.60;;;;;;;;;;8275149;28;20401;-56
2023/12/07 07:21:40;;;;;;;290.00;17.55;;;;;;;;;;8278053;28;20029;-56
2023/12/07 07:25:40;;;;;;;127.93;11.15;;;;;;;;;;8282409;28;20035;-57
2023/12/07 07:29:40;;;;;;;123.22;9.57;;;;;;;;;;8282881;28;20148;-57
2023/12/07 07:33:40;;;;;;;30.30;6.68;;;;;;;;;;8284051;28;20182;-57
2023/12/07 07:37:41;;;;;;;19.70;6.72;;;;;;;;;;8286753;28;20143;-56
2023/12/07 07:41:41;;;;;;;55.13;9.27;;;;;;;;;;8290901;28;20840;-56
2023/12/07 07:45:41;;;;;;;114.22;14.45;;;;;;;;;;8288494;28;20029;-57
2023/12/07 07:49:42;;;;;;;124.07;12.40;;;;;;;;;;8281625;28;20552;-57
2023/12/07 07:53:42;;;;;;;107.40;12.32;;;;;;;;;;8287077;28;20033;-57
2023/12/07 07:57:42;;;;;;;577.47;31.88;;;;;;;;;;8287833;28;20123;-57
2023/12/07 08:01:44;;;;;;;805.83;41.08;;;;;;;;;;8285147;28;20144;-57
2023/12/07 08:05:44;;;;;;;725.33;37.38;;;;;;;;;;8285889;28;20031;-57
2023/12/07 08:09:44;;;;;;;729.63;43.37;;;;;;;;;;8288126;28;20041;-56
2023/12/07 08:13:45;;;;;;;487.15;29.05;;;;;;;;;;8283536;28;20275;-57
2023/12/07 08:17:45;;;;;;;564.13;28.30;;;;;;;;;;8280185;28;20160;-55
2023/12/07 08:21:45;;;;;;;569.28;37.88;;;;;;;;;;8283451;28;20030;-56
2023/12/07 08:25:45;;;;;;;423.52;22.73;;;;;;;;;;8284937;28;20079;-56
2023/12/07 08:29:46;;;;;;;409.63;23.25;;;;;;;;;;8285888;28;20112;-57
2023/12/07 08:33:46;;;;;;;387.77;27.33;;;;;;;;;;8276802;28;20115;-56
2023/12/07 08:37:47;;;;;;;141.05;11.77;;;;;;;;;;8285287;28;20036;-56
2023/12/07 08:41:47;;;;;;;485.65;24.27;;;;;;;;;;8278292;28;20521;-57
2023/12/07 08:45:47;;;;;;;479.63;28.70;;;;;;;;;;8276162;28;20033;-57
2023/12/07 08:49:47;;;;;;;357.77;21.58;;;;;;;;;;8273680;28;20037;-57
2023/12/07 08:53:48;;;;;;;309.23;18.33;;;;;;;;;;8277590;28;20029;-57
2023/12/07 08:57:48;;;;;;;378.17;25.73;;;;;;;;;;8279155;28;20046;-56
2023/12/07 09:01:49;;;;;;;473.00;25.77;;;;;;;;;;8277747;28;20504;-55
2023/12/07 09:05:49;;;;;;;535.78;27.48;;;;;;;;;;8279319;28;20029;-57
2023/12/07 09:09:49;;;;;;;283.02;17.55;;;;;;;;;;8277738;28;20857;-57
2023/12/07 09:13:50;;;;;;;287.70;19.80;;;;;;;;;;8279422;28;20044;-56
2023/12/07 09:17:50;;;;;;;38.28;8.18;;;;;;;;;;8259300;28;20171;-57
2023/12/07 09:21:50;;;;;;;70.57;9.82;;;;;;;;;;8277340;28;20921;-57
2023/12/07 09:25:50;;;;;;;187.07;12.03;;;;;;;;;;8273576;28;20127;-57
2023/12/07 09:29:51;;;;;;;312.15;17.58;;;;;;;;;;8279576;28;20283;-57
2023/12/07 09:33:53;;;;;;;429.70;25.40;;;;;;;;;;8276171;28;20656;-57
2023/12/07 09:37:54;;;;;;;368.67;23.50;;;;;;;;;;8278621;28;20026;-57
2023/12/07 09:41:54;;;;;;;290.30;19.02;;;;;;;;;;8277886;28;20115;-57
2023/12/07 09:45:54;;;;;;;252.23;18.55;;;;;;;;;;8275230;28;20065;-56
2023/12/07 09:49:55;;;;;;;269.30;19.70;;;;;;;;;;8279163;28;20131;-57
2023/12/07 09:53:55;;;;;;;204.70;16.63;;;;;;;;;;8275595;28;20021;-58
2023/12/07 09:57:58;;;;;;;377.17;21.33;;;;;;;;;;8274256;28;20073;-57
2023/12/07 10:02:00;;;;;;;433.70;21.65;;;;;;;;;;8278535;28;20079;-56
2023/12/07 10:06:01;;;;;;;393.75;22.33;;;;;;;;;;8279112;28;20872;-56
2023/12/07 10:10:03;;;;;;;298.60;17.50;;;;;;;;;;8273868;28;20668;-58
2023/12/07 10:14:04;;;;;;;135.27;11.90;;;;;;;;;;8276406;28;20093;-58
2023/12/07 10:18:05;;;;;;;243.38;16.27;;;;;;;;;;8271273;28;20041;-57
2023/12/07 10:22:12;;;;;;;270.23;16.00;;;;;;;;;;8271222;28;20040;-57
2023/12/07 10:26:15;;;;;;;425.30;18.73;;;;;;;;;;8276507;28;20108;-58
2023/12/07 10:30:17;;;;;;;322.83;17.08;;;;;;;;;;8273196;28;20029;-57
2023/12/07 10:34:18;;;;;;;340.60;19.70;;;;;;;;;;8273623;28;20408;-57
2023/12/07 10:38:19;;;;;;;477.67;20.83;;;;;;;;;;8274755;28;20021;-58
2023/12/07 10:42:22;;;;;;;397.08;19.02;;;;;;;;;;8273370;28;20381;-58
2023/12/07 10:46:22;;;;;;;513.08;23.70;;;;;;;;;;8276235;28;20033;-57
2023/12/07 10:50:23;;;;;;;470.85;21.23;;;;;;;;;;8273334;28;20033;-58
2023/12/07 10:54:26;;;;;;;386.40;17.40;;;;;;;;;;8274107;28;20693;-57
2023/12/07 10:58:26;;;;;;;529.03;22.25;;;;;;;;;;8272269;28;20040;-56
2023/12/07 11:02:28;;;;;;;504.73;25.05;;;;;;;;;;8271182;28;20029;-56
2023/12/07 11:06:28;;;;;;;516.95;24.58;;;;;;;;;;8275050;28;20056;-57
2023/12/07 11:10:36;;;;;;;361.83;19.33;;;;;;;;;;8276929;28;20060;-57
2023/12/07 11:14:37;;;;;;;635.38;25.85;;;;;;;;;;8278368;28;20059;-58
2023/12/07 11:18:37;;;;;;;336.48;17.85;;;;;;;;;;8280173;28;20044;-56
2023/12/07 11:22:40;;;;;;;654.83;31.13;;;;;;;;;;8263420;28;20759;-61
2023/12/07 11:26:42;;;;;;;811.13;34.15;;;;;;;;;;8281959;28;20036;-57
2023/12/07 11:30:44;;;;;;;595.20;26.30;;;;;;;;;;8276831;28;20041;-56
2023/12/07 11:34:44;;;;;;;484.90;24.90;;;;;;;;;;8279438;28;20897;-57
2023/12/07 11:39:18;;;;;;;553.22;27.10;;;;;;;;;;8278262;28;20441;-58
2023/12/07 11:43:30;;;;;;;94.80;10.43;;;;;;;;;;8243507;28;20044;-58
2023/12/07 11:47:31;;;;;;;465.73;22.08;;;;;;;;;;8279799;28;20086;-58
2023/12/07 11:51:31;;;;;;;368.53;18.50;;;;;;;;;;8279770;28;20026;-58
2023/12/07 11:55:31;;;;;;;337.83;18.47;;;;;;;;;;8279474;28;20290;-59
2023/12/07 11:59:31;;;;;;;480.60;20.15;;;;;;;;;;8277484;28;20625;-58
2023/12/07 12:03:32;;;;;;;421.10;17.27;;;;;;;;;;8262333;28;20045;-58
2023/12/07 12:07:33;;;;;;;471.95;28.02;;;;;;;;;;8291167;28;20293;-57
2023/12/07 12:11:33;;;;;;;402.77;19.27;;;;;;;;;;8280102;28;20036;-58
2023/12/07 12:15:33;;;;;;;119.43;10.53;;;;;;;;;;8284892;28;20155;-58
2023/12/07 12:19:36;;;;;;;191.20;11.20;;;;;;;;;;8276000;28;20329;-60
2023/12/07 12:23:37;;;;;;;380.90;22.02;;;;;;;;;;8273924;28;20144;-58
2023/12/07 12:27:37;;;;;;;329.50;19.15;;;;;;;;;;8261173;28;20215;-57
2023/12/07 12:31:38;;;;;;;177.52;10.40;;;;;;;;;;8277259;28;20037;-58
2023/12/07 12:35:38;;;;;;;105.32;8.48;;;;;;;;;;8282918;28;20032;-58
2023/12/07 12:39:39;;;;;;;392.42;22.65;;;;;;;;;;8279049;28;20135;-57
2023/12/07 12:43:39;;;;;;;210.80;16.33;;;;;;;;;;8279544;28;20017;-57
2023/12/07 12:47:40;;;;;;;215.73;17.55;;;;;;;;;;8280397;28;20744;-55
2023/12/07 12:51:40;;;;;;;236.18;16.95;;;;;;;;;;8274526;28;20028;-57
2023/12/07 12:55:41;;;;;;;293.77;16.27;;;;;;;;;;8278739;28;20020;-56
2023/12/07 12:59:41;;;;;;;374.02;18.48;;;;;;;;;;8278961;28;20017;-57
2023/12/07 13:03:41;;;;;;;251.07;26.65;;;;;;;;;;8275656;28;20037;-57
2023/12/07 13:07:43;;;;;;;273.27;19.88;;;;;;;;;;8279027;28;20041;-57
2023/12/07 13:11:43;;;;;;;199.05;14.50;;;;;;;;;;8277882;28;20017;-56
2023/12/07 13:15:43;;;;;;;239.93;14.13;;;;;;;;;;8276348;28;20041;-57
2023/12/07 13:19:44;;;;;;;294.77;16.73;;;;;;;;;;8277920;28;20458;-57
2023/12/07 13:23:45;;;;;;;166.83;11.23;;;;;;;;;;8279174;28;20068;-57
2023/12/07 13:27:46;;;;;;;323.77;16.10;;;;;;;;;;8277445;28;20279;-57
2023/12/07 13:31:46;;;;;;;350.58;19.35;;;;;;;;;;8274260;28;20454;-56
2023/12/07 13:35:46;;;;;;;270.50;17.90;;;;;;;;;;8254111;28;20059;-56
2023/12/07 13:39:52;;;;;;;264.67;15.40;;;;;;;;;;8273122;28;20026;-56
2023/12/07 13:43:53;;;;;;;327.55;17.55;;;;;;;;;;8277637;28;20028;-56
2023/12/07 13:47:53;;;;;;;75.80;14.97;;;;;;;;;;8274543;28;20044;-56
2023/12/07 13:51:53;;;;;;;56.55;16.83;;;;;;;;;;8272490;28;20312;-57
2023/12/07 13:55:53;;;;;;;225.00;21.00;;;;;;;;;;8274701;28;20064;-56
2023/12/07 13:59:54;;;;;;;141.13;13.90;;;;;;;;;;8277479;28;21100;-56
2023/12/07 14:03:55;;;;;;;235.23;18.45;;;;;;;;;;8277164;28;20036;-56
2023/12/07 14:07:55;;;;;;;561.47;25.65;;;;;;;;;;8277925;28;20029;-55
2023/12/07 14:11:56;;;;;;;190.38;13.27;;;;;;;;;;8275568;28;20075;-57
2023/12/07 14:15:56;;;;;;;73.82;12.55;;;;;;;;;;8277178;28;20033;-57
2023/12/07 14:19:57;;;;;;;214.40;15.60;;;;;;;;;;8274651;28;21961;-58
2023/12/07 14:23:58;;;;;;;203.73;19.98;;;;;;;;;;8276228;28;20025;-57
2023/12/07 14:27:58;;;;;;;80.00;12.32;;;;;;;;;;8275802;28;20021;-57
2023/12/07 14:31:59;;;;;;;160.98;12.18;;;;;;;;;;8276607;28;20033;-54
2023/12/07 14:35:59;;;;;;;534.60;24.65;;;;;;;;;;8277202;28;20397;-56
2023/12/07 14:39:59;;;;;;;266.55;17.80;;;;;;;;;;8274705;28;20294;-57
2023/12/07 14:43:59;;;;;;;516.88;24.52;;;;;;;;;;8272248;28;20021;-57
2023/12/07 14:48:00;;;;;;;584.22;26.10;;;;;;;;;;8275014;28;20268;-56
2023/12/07 14:52:00;;;;;;;642.60;28.05;;;;;;;;;;8272725;28;20025;-56
2023/12/07 14:56:00;;;;;;;1126.97;46.45;;;;;;;;;;8280633;28;20021;-56
2023/12/07 15:00:03;;;;;;;531.90;29.38;;;;;;;;;;8275223;28;20276;-55
2023/12/07 15:04:04;;;;;;;526.47;27.70;;;;;;;;;;8275407;28;20060;-56
2023/12/07 15:08:04;;;;;;;452.00;25.98;;;;;;;;;;8275585;28;20029;-57
2023/12/07 15:12:05;;;;;;;489.67;27.27;;;;;;;;;;8275044;28;20087;-57
2023/12/07 15:16:05;;;;;;;656.70;32.47;;;;;;;;;;8276390;28;20283;-57
2023/12/07 15:20:06;;;;;;;617.13;30.98;;;;;;;;;;8274960;28;20777;-57
2023/12/07 15:24:06;;;;;;;412.00;24.02;;;;;;;;;;8274166;28;20036;-57
2023/12/07 15:28:10;;;;;;;833.42;36.92;;;;;;;;;;8277695;28;20405;-55
2023/12/07 15:32:11;;;;;;;744.90;35.63;;;;;;;;;;8273547;28;20864;-57
2023/12/07 15:36:12;;;;;;;615.33;30.80;;;;;;;;;;8277806;28;20836;-57
2023/12/07 15:40:12;;;;;;;802.83;40.25;;;;;;;;;;8280103;28;20975;-57
2023/12/07 15:44:12;;;;;;;581.85;28.02;;;;;;;;;;8276062;28;21030;-56
2023/12/07 15:48:12;;;;;;;562.90;31.60;;;;;;;;;;8258188;28;20041;-57
2023/12/07 15:52:12;;;;;;;764.70;39.45;;;;;;;;;;8273527;28;20021;-56
2023/12/07 15:56:13;;;;;;;590.95;33.72;;;;;;;;;;8278767;28;20580;-57
2023/12/07 16:00:14;;;;;;;622.15;36.22;;;;;;;;;;8279158;28;20021;-57
2023/12/07 16:04:15;;;;;;;782.70;41.42;;;;;;;;;;8281439;28;20030;-56
2023/12/07 16:08:15;;;;;;;451.70;27.77;;;;;;;;;;8283240;28;20029;-57
2023/12/07 16:12:16;;;;;;;816.17;36.97;;;;;;;;;;8279671;28;20087;-58
2023/12/07 16:16:16;;;;;;;638.00;34.10;;;;;;;;;;8280989;28;20293;-56
2023/12/07 16:20:16;;;;;;;684.63;32.03;;;;;;;;;;8276546;28;20071;-57
2023/12/07 16:24:17;;;;;;;653.73;29.37;;;;;;;;;;8284939;28;20127;-57
2023/12/07 16:28:17;;;;;;;664.33;29.40;;;;;;;;;;8281503;28;20283;-57
2023/12/07 16:32:17;;;;;;;552.85;28.23;;;;;;;;;;8279623;28;20041;-57
2023/12/07 16:36:17;;;;;;;373.73;19.42;;;;;;;;;;8276938;28;20034;-58
2023/12/07 16:40:17;;;;;;;181.27;12.32;;;;;;;;;;8278776;28;20036;-57
2023/12/07 16:44:18;;;;;;;358.93;21.47;;;;;;;;;;8277800;28;20021;-57
2023/12/07 16:48:18;;;;;;;312.85;17.35;;;;;;;;;;8270942;28;20394;-55
2023/12/07 16:52:18;;;;;;;323.30;19.48;;;;;;;;;;8276714;28;20360;-57
2023/12/07 16:56:18;;;;;;;420.87;21.17;;;;;;;;;;8274414;28;20029;-57
2023/12/07 17:00:18;;;;;;;177.77;11.93;;;;;;;;;;8273843;28;20296;-57
2023/12/07 17:04:19;;;;;;;570.97;28.17;;;;;;;;;;8272201;28;20120;-56
2023/12/07 17:08:21;;;;;;;328.03;16.97;;;;;;;;;;8276958;28;20036;-58
2023/12/07 17:12:21;;;;;;;607.33;26.33;;;;;;;;;;8275526;28;20993;-58
2023/12/07 17:16:21;;;;;;;344.70;17.75;;;;;;;;;;8274954;28;20044;-58
2023/12/07 17:20:21;;;;;;;584.42;33.60;;;;;;;;;;8281788;28;20039;-57
2023/12/07 17:24:21;;;;;;;683.63;29.58;;;;;;;;;;8281762;28;20028;-57
2023/12/07 17:28:22;;;;;;;418.73;20.52;;;;;;;;;;8280334;28;20120;-56
2023/12/07 17:32:22;;;;;;;347.15;18.52;;;;;;;;;;8282459;28;20069;-56
2023/12/07 17:36:22;;;;;;;387.60;19.70;;;;;;;;;;8283171;28;20032;-57
2023/12/07 17:40:22;;;;;;;534.93;24.17;;;;;;;;;;8282732;28;20059;-58
2023/12/07 17:44:23;;;;;;;389.33;19.63;;;;;;;;;;8277605;28;20280;-58
2023/12/07 17:48:23;;;;;;;728.45;29.00;;;;;;;;;;8272525;28;20164;-57
2023/12/07 17:52:23;;;;;;;163.97;12.50;;;;;;;;;;8268965;28;20033;-58
2023/12/07 17:56:23;;;;;;;396.83;18.73;;;;;;;;;;8270596;28;20279;-57
2023/12/07 18:00:24;;;;;;;385.90;18.98;;;;;;;;;;8268320;28;20035;-58
2023/12/07 18:04:24;;;;;;;551.10;25.42;;;;;;;;;;8271612;28;20128;-58
2023/12/07 18:08:24;;;;;;;584.70;25.43;;;;;;;;;;8274639;28;20488;-57
2023/12/07 18:12:24;;;;;;;332.92;20.88;;;;;;;;;;8272746;28;20272;-58
2023/12/07 18:16:25;;;;;;;357.05;20.45;;;;;;;;;;8275114;28;20041;-55
2023/12/07 18:20:25;;;;;;;308.90;19.42;;;;;;;;;;8275462;28;20029;-56
2023/12/07 18:24:25;;;;;;;493.10;21.70;;;;;;;;;;8274678;28;20080;-58
2023/12/07 18:28:26;;;;;;;638.40;27.57;;;;;;;;;;8274000;28;20568;-57
2023/12/07 18:32:26;;;;;;;729.92;35.22;;;;;;;;;;8272932;28;20782;-57
2023/12/07 18:36:26;;;;;;;614.60;27.08;;;;;;;;;;8274848;28;20060;-57
2023/12/07 18:40:28;;;;;;;555.83;27.88;;;;;;;;;;8274338;28;20029;-57
2023/12/07 18:44:28;;;;;;;520.08;22.67;;;;;;;;;;8275891;28;20048;-57
2023/12/07 18:48:28;;;;;;;488.77;22.52;;;;;;;;;;8274242;28;20041;-57
2023/12/07 18:52:28;;;;;;;500.20;26.08;;;;;;;;;;8271749;28;20025;-57
2023/12/07 18:56:29;;;;;;;276.20;19.05;;;;;;;;;;8273636;28;20477;-58
2023/12/07 19:00:31;;;;;;;527.60;24.27;;;;;;;;;;8256021;28;20036;-57
2023/12/07 19:04:31;;;;;;;413.73;21.58;;;;;;;;;;8271790;28;20611;-57
2023/12/07 19:08:31;;;;;;;612.38;26.67;;;;;;;;;;8274356;28;20124;-57
2023/12/07 19:12:31;;;;;;;382.83;20.65;;;;;;;;;;8270292;28;20025;-57
2023/12/07 19:16:31;;;;;;;489.88;23.40;;;;;;;;;;8253372;28;22062;-58
2023/12/07 19:20:32;;;;;;;461.30;23.13;;;;;;;;;;8275440;28;20087;-58
2023/12/07 19:24:32;;;;;;;539.38;25.98;;;;;;;;;;8257839;28;20036;-57
2023/12/07 19:28:32;;;;;;;674.28;33.70;;;;;;;;;;8282876;28;20035;-56
2023/12/07 19:32:33;;;;;;;499.25;25.75;;;;;;;;;;8280877;28;20040;-56
2023/12/07 19:36:33;;;;;;;627.10;30.27;;;;;;;;;;8283424;28;20892;-56
2023/12/07 19:40:33;;;;;;;496.73;24.35;;;;;;;;;;8265189;28;20076;-58
2023/12/07 19:44:34;;;;;;;332.95;19.58;;;;;;;;;;8276088;28;20049;-57
2023/12/07 19:48:35;;;;;;;298.30;19.55;;;;;;;;;;8280672;28;20039;-56
2023/12/07 19:52:36;;;;;;;633.15;28.42;;;;;;;;;;8278105;28;20033;-57
2023/12/07 19:56:36;;;;;;;343.35;21.85;;;;;;;;;;8277515;28;20102;-56
2023/12/07 20:00:36;;;;;;;314.05;17.40;;;;;;;;;;8280601;28;20067;-57
2023/12/07 20:04:37;;;;;;;454.05;22.00;;;;;;;;;;8277666;28;20412;-56
2023/12/07 20:08:37;;;;;;;366.65;21.38;;;;;;;;;;8278528;28;20031;-57
2023/12/07 20:12:37;;;;;;;331.23;20.43;;;;;;;;;;8274079;28;20033;-56
2023/12/07 20:16:38;;;;;;;287.35;21.27;;;;;;;;;;8273633;28;20775;-57
2023/12/07 20:20:38;;;;;;;23.47;13.47;;;;;;;;;;8278189;28;20060;-56
2023/12/07 20:24:38;;;;;;;26.83;14.68;;;;;;;;;;8277013;28;20374;-55
2023/12/07 20:28:39;;;;;;;25.20;13.40;;;;;;;;;;8277658;28;20029;-57
2023/12/07 20:32:39;;;;;;;25.80;12.43;;;;;;;;;;8274941;28;20139;-57
2023/12/07 20:36:40;;;;;;;22.38;13.10;;;;;;;;;;8274581;28;20072;-57
2023/12/07 20:40:40;;;;;;;24.67;12.88;;;;;;;;;;8268942;28;20020;-57
2023/12/07 20:44:41;;;;;;;24.65;13.18;;;;;;;;;;8275972;28;20033;-57
2023/12/07 20:48:41;;;;;;;18.63;11.40;;;;;;;;;;8255484;28;20045;-58
2023/12/07 20:52:41;;;;;;;27.00;16.27;;;;;;;;;;8283659;28;20171;-57
2023/12/07 20:56:42;;;;;;;21.98;13.73;;;;;;;;;;8276379;28;20131;-58
2023/12/07 21:00:43;;;;;;;25.80;15.90;;;;;;;;;;8275636;28;20033;-58
2023/12/07 21:04:43;;;;;;;32.03;16.85;;;;;;;;;;8280245;28;20014;-57
2023/12/07 21:08:43;;;;;;;28.42;16.48;;;;;;;;;;8282939;28;20028;-57
2023/12/07 21:12:43;;;;;;;30.15;18.25;;;;;;;;;;8272831;28;20025;-57
2023/12/07 21:16:44;;;;;;;21.55;12.90;;;;;;;;;;8278223;28;20083;-57
2023/12/07 21:20:44;;;;;;;24.97;15.10;;;;;;;;;;8280320;28;20021;-57
2023/12/07 21:24:44;;;;;;;20.95;12.85;;;;;;;;;;8272032;28;20376;-57
2023/12/07 21:28:44;;;;;;;21.17;12.55;;;;;;;;;;8272827;28;21132;-58
2023/12/07 21:32:45;;;;;;;18.35;11.80;;;;;;;;;;8273766;28;20090;-56
2023/12/07 21:36:45;;;;;;;23.15;13.80;;;;;;;;;;8274460;28;20610;-55
2023/12/07 21:40:45;;;;;;;15.45;10.73;;;;;;;;;;8280688;28;20358;-56
2023/12/07 21:44:46;;;;;;;15.70;10.40;;;;;;;;;;8271976;28;20108;-57
2023/12/07 21:48:46;;;;;;;18.05;12.00;;;;;;;;;;8273087;28;20033;-57
2023/12/07 21:52:47;;;;;;;20.80;12.93;;;;;;;;;;8271291;28;20029;-56
2023/12/07 21:56:47;;;;;;;19.30;11.60;;;;;;;;;;8270029;28;20044;-58
2023/12/07 22:00:47;;;;;;;18.85;10.70;;;;;;;;;;8272072;28;20029;-57
2023/12/07 22:04:48;;;;;;;17.83;11.55;;;;;;;;;;8278843;28;20033;-58
2023/12/07 22:08:48;;;;;;;17.80;12.25;;;;;;;;;;8276214;28;20025;-58
2023/12/07 22:12:48;;;;;;;20.38;12.32;;;;;;;;;;8274893;28;20094;-56
2023/12/07 22:16:49;;;;;;;21.27;12.65;;;;;;;;;;8275246;28;20092;-57
2023/12/07 22:20:50;;;;;;;23.13;12.63;;;;;;;;;;8276467;28;20029;-56
2023/12/07 22:24:50;;;;;;;13.73;9.77;;;;;;;;;;8274402;28;20287;-55
2023/12/07 22:28:51;;;;;;;20.48;12.13;;;;;;;;;;8275124;28;20417;-56
2023/12/07 22:32:52;;;;;;;20.40;12.85;;;;;;;;;;8272671;28;21304;-57
2023/12/07 22:36:52;;;;;;;18.52;10.63;;;;;;;;;;8271446;28;20035;-56
2023/12/07 22:40:52;;;;;;;15.65;10.23;;;;;;;;;;8273906;28;20136;-56
2023/12/07 22:44:53;;;;;;;15.05;9.00;;;;;;;;;;8273156;28;21264;-57
2023/12/07 22:48:53;;;;;;;13.88;9.30;;;;;;;;;;8274364;28;20139;-57
2023/12/07 22:52:53;;;;;;;16.02;10.75;;;;;;;;;;8273651;28;20111;-56
2023/12/07 22:56:53;;;;;;;16.80;10.30;;;;;;;;;;8270650;28;20029;-56
2023/12/07 23:00:53;;;;;;;15.60;10.57;;;;;;;;;;8269950;28;20042;-56
2023/12/07 23:04:54;;;;;;;18.27;11.13;;;;;;;;;;8279471;28;20268;-56
2023/12/07 23:08:54;;;;;;;19.40;12.43;;;;;;;;;;8280941;28;20033;-57
2023/12/07 23:12:54;;;;;;;21.03;11.43;;;;;;;;;;8278067;28;20298;-57
2023/12/07 23:16:54;;;;;;;14.23;10.63;;;;;;;;;;8275051;28;20373;-57